sensor_id;sensor_type;location;lat;lon;timestamp;P1;durP1;ratioP1;P2;durP2;ratioP2
30647;SDS011;17683;53.360;9.736;2023-03-21T00:01:35;30.10;;;24.80;;
30647;SDS011;17683;53.360;9.736;2023-03-21T00:04:01;29.60;;;24.13;;
30647;SDS011;17683;53.360;9.736;2023-03-21T00:06:27;29.50;;;24.20;;
30647;SDS011;17683;53.360;9.736;2023-03-21T00:08:52;29.92;;;24.35;;
30647;SDS011;17683;53.360;9.736;2023-03-21T00:11:18;31.05;;;25.02;;
30647;SDS011;17683;53.360;9.736;2023-03-21T00:13:44;31.52;;;26.48;;
30647;SDS011;17683;53.360;9.736;2023-03-21T00:16:11;31.85;;;26.60;;
30647;SDS011;17683;53.360;9.736;2023-03-21T00:18:42;30.83;;;25.52;;
30647;SDS011;17683;53.360;9.736;2023-03-21T00:21:11;32.72;;;26.90;;
30647;SDS011;17683;53.360;9.736;2023-03-21T00:23:41;33.25;;;26.50;;
30647;SDS011;17683;53.360;9.736;2023-03-21T00:26:07;31.00;;;25.67;;
30647;SDS011;17683;53.360;9.736;2023-03-21T00:28:34;32.08;;;26.20;;
30647;SDS011;17683;53.360;9.736;2023-03-21T00:31:01;35.00;;;28.00;;
30647;SDS011;17683;53.360;9.736;2023-03-21T00:33:27;34.45;;;26.80;;
30647;SDS011;17683;53.360;9.736;2023-03-21T00:35:54;31.95;;;25.35;;
30647;SDS011;17683;53.360;9.736;2023-03-21T00:38:20;32.22;;;26.75;;
30647;SDS011;17683;53.360;9.736;2023-03-21T00:40:46;32.22;;;26.58;;
30647;SDS011;17683;53.360;9.736;2023-03-21T00:43:13;37.17;;;28.90;;
30647;SDS011;17683;53.360;9.736;2023-03-21T00:45:41;32.75;;;26.73;;
30647;SDS011;17683;53.360;9.736;2023-03-21T00:48:08;32.40;;;26.17;;
30647;SDS011;17683;53.360;9.736;2023-03-21T00:50:34;35.85;;;28.38;;
30647;SDS011;17683;53.360;9.736;2023-03-21T00:53:00;35.53;;;29.05;;
30647;SDS011;17683;53.360;9.736;2023-03-21T00:55:26;37.47;;;29.55;;
30647;SDS011;17683;53.360;9.736;2023-03-21T00:57:51;33.40;;;26.55;;
30647;SDS011;17683;53.360;9.736;2023-03-21T01:00:17;32.83;;;26.85;;
30647;SDS011;17683;53.360;9.736;2023-03-21T01:02:44;32.20;;;26.63;;
30647;SDS011;17683;53.360;9.736;2023-03-21T01:05:23;32.80;;;27.25;;
30647;SDS011;17683;53.360;9.736;2023-03-21T01:08:10;34.00;;;27.30;;
30647;SDS011;17683;53.360;9.736;2023-03-21T01:10:42;33.33;;;27.13;;
30647;SDS011;17683;53.360;9.736;2023-03-21T01:13:10;32.70;;;27.20;;
30647;SDS011;17683;53.360;9.736;2023-03-21T01:15:41;35.97;;;29.65;;
30647;SDS011;17683;53.360;9.736;2023-03-21T01:18:12;33.15;;;27.05;;
30647;SDS011;17683;53.360;9.736;2023-03-21T01:20:40;33.40;;;27.67;;
30647;SDS011;17683;53.360;9.736;2023-03-21T01:23:07;31.60;;;26.73;;
30647;SDS011;17683;53.360;9.736;2023-03-21T01:25:34;34.50;;;27.20;;
30647;SDS011;17683;53.360;9.736;2023-03-21T01:27:59;36.00;;;29.08;;
30647;SDS011;17683;53.360;9.736;2023-03-21T01:30:25;36.35;;;29.73;;
30647;SDS011;17683;53.360;9.736;2023-03-21T01:32:51;36.40;;;29.55;;
30647;SDS011;17683;53.360;9.736;2023-03-21T01:35:16;33.10;;;27.17;;
30647;SDS011;17683;53.360;9.736;2023-03-21T01:37:42;36.22;;;29.48;;
30647;SDS011;17683;53.360;9.736;2023-03-21T01:40:10;37.83;;;30.02;;
30647;SDS011;17683;53.360;9.736;2023-03-21T01:42:42;39.83;;;30.13;;
30647;SDS011;17683;53.360;9.736;2023-03-21T01:48:11;34.58;;;28.92;;
30647;SDS011;17683;53.360;9.736;2023-03-21T01:50:38;36.65;;;30.48;;
30647;SDS011;17683;53.360;9.736;2023-03-21T01:53:06;38.17;;;30.13;;
30647;SDS011;17683;53.360;9.736;2023-03-21T01:55:31;37.10;;;29.30;;
30647;SDS011;17683;53.360;9.736;2023-03-21T01:57:58;39.20;;;30.33;;
30647;SDS011;17683;53.360;9.736;2023-03-21T02:00:26;38.60;;;29.80;;
30647;SDS011;17683;53.360;9.736;2023-03-21T02:02:53;37.40;;;29.95;;
30647;SDS011;17683;53.360;9.736;2023-03-21T02:05:27;38.10;;;30.90;;
30647;SDS011;17683;53.360;9.736;2023-03-21T02:08:01;35.83;;;29.15;;
30647;SDS011;17683;53.360;9.736;2023-03-21T02:10:27;35.03;;;29.10;;
30647;SDS011;17683;53.360;9.736;2023-03-21T02:12:56;38.00;;;28.92;;
30647;SDS011;17683;53.360;9.736;2023-03-21T02:15:34;36.25;;;29.73;;
30647;SDS011;17683;53.360;9.736;2023-03-21T02:24:09;36.15;;;29.27;;
30647;SDS011;17683;53.360;9.736;2023-03-21T02:26:50;40.63;;;30.73;;
30647;SDS011;17683;53.360;9.736;2023-03-21T02:32:10;36.40;;;28.73;;
30647;SDS011;17683;53.360;9.736;2023-03-21T02:37:48;36.90;;;29.55;;
30647;SDS011;17683;53.360;9.736;2023-03-21T02:40:24;39.35;;;31.05;;
30647;SDS011;17683;53.360;9.736;2023-03-21T02:43:04;36.78;;;30.40;;
30647;SDS011;17683;53.360;9.736;2023-03-21T02:51:21;38.05;;;29.10;;
30647;SDS011;17683;53.360;9.736;2023-03-21T02:53:49;36.97;;;29.33;;
30647;SDS011;17683;53.360;9.736;2023-03-21T02:56:20;40.67;;;29.92;;
30647;SDS011;17683;53.360;9.736;2023-03-21T02:58:48;36.80;;;28.17;;
30647;SDS011;17683;53.360;9.736;2023-03-21T03:01:15;39.40;;;30.60;;
30647;SDS011;17683;53.360;9.736;2023-03-21T03:03:40;38.38;;;30.10;;
30647;SDS011;17683;53.360;9.736;2023-03-21T03:06:09;37.78;;;29.77;;
30647;SDS011;17683;53.360;9.736;2023-03-21T03:09:29;38.55;;;30.38;;
30647;SDS011;17683;53.360;9.736;2023-03-21T03:11:47;39.03;;;30.63;;
30647;SDS011;17683;53.360;9.736;2023-03-21T03:14:22;40.65;;;31.98;;
30647;SDS011;17683;53.360;9.736;2023-03-21T03:17:03;40.63;;;31.92;;
30647;SDS011;17683;53.360;9.736;2023-03-21T03:26:25;41.70;;;32.90;;
30647;SDS011;17683;53.360;9.736;2023-03-21T03:31:02;43.92;;;30.75;;
30647;SDS011;17683;53.360;9.736;2023-03-21T03:33:29;44.30;;;31.42;;
30647;SDS011;17683;53.360;9.736;2023-03-21T03:35:58;42.85;;;32.90;;
30647;SDS011;17683;53.360;9.736;2023-03-21T03:38:24;44.28;;;33.42;;
30647;SDS011;17683;53.360;9.736;2023-03-21T03:40:57;41.15;;;32.83;;
30647;SDS011;17683;53.360;9.736;2023-03-21T03:43:42;41.30;;;32.17;;
30647;SDS011;17683;53.360;9.736;2023-03-21T03:46:39;48.75;;;34.50;;
30647;SDS011;17683;53.360;9.736;2023-03-21T03:49:16;44.45;;;34.35;;
30647;SDS011;17683;53.360;9.736;2023-03-21T03:54:21;52.30;;;35.25;;
30647;SDS011;17683;53.360;9.736;2023-03-21T03:56:53;47.85;;;34.10;;
30647;SDS011;17683;53.360;9.736;2023-03-21T03:59:19;44.42;;;33.67;;
30647;SDS011;17683;53.360;9.736;2023-03-21T04:01:49;45.35;;;34.05;;
30647;SDS011;17683;53.360;9.736;2023-03-21T04:04:15;44.88;;;33.95;;
30647;SDS011;17683;53.360;9.736;2023-03-21T04:06:44;47.03;;;34.05;;
30647;SDS011;17683;53.360;9.736;2023-03-21T04:09:15;49.35;;;36.22;;
30647;SDS011;17683;53.360;9.736;2023-03-21T04:11:42;47.60;;;35.38;;
30647;SDS011;17683;53.360;9.736;2023-03-21T04:14:08;48.17;;;36.22;;
30647;SDS011;17683;53.360;9.736;2023-03-21T04:16:34;49.25;;;36.75;;
30647;SDS011;17683;53.360;9.736;2023-03-21T04:19:00;49.20;;;35.08;;
30647;SDS011;17683;53.360;9.736;2023-03-21T04:21:26;52.67;;;38.97;;
30647;SDS011;17683;53.360;9.736;2023-03-21T04:23:53;49.33;;;36.20;;
30647;SDS011;17683;53.360;9.736;2023-03-21T04:26:19;50.15;;;35.58;;
30647;SDS011;17683;53.360;9.736;2023-03-21T04:28:49;49.70;;;36.45;;
30647;SDS011;17683;53.360;9.736;2023-03-21T04:31:15;46.50;;;34.50;;
30647;SDS011;17683;53.360;9.736;2023-03-21T04:33:41;45.88;;;36.20;;
30647;SDS011;17683;53.360;9.736;2023-03-21T04:36:08;46.13;;;34.78;;
30647;SDS011;17683;53.360;9.736;2023-03-21T04:38:51;47.28;;;36.47;;
30647;SDS011;17683;53.360;9.736;2023-03-21T04:41:17;48.03;;;34.40;;
30647;SDS011;17683;53.360;9.736;2023-03-21T04:43:44;48.22;;;36.75;;
30647;SDS011;17683;53.360;9.736;2023-03-21T04:46:10;45.03;;;35.17;;
30647;SDS011;17683;53.360;9.736;2023-03-21T04:48:35;49.72;;;34.00;;
30647;SDS011;17683;53.360;9.736;2023-03-21T04:51:01;44.25;;;34.20;;
30647;SDS011;17683;53.360;9.736;2023-03-21T04:53:27;46.05;;;33.85;;
30647;SDS011;17683;53.360;9.736;2023-03-21T04:55:53;45.25;;;33.60;;
30647;SDS011;17683;53.360;9.736;2023-03-21T04:58:19;41.05;;;32.25;;
30647;SDS011;17683;53.360;9.736;2023-03-21T05:00:45;40.58;;;31.63;;
30647;SDS011;17683;53.360;9.736;2023-03-21T05:03:11;39.72;;;31.65;;
30647;SDS011;17683;53.360;9.736;2023-03-21T05:05:43;39.85;;;32.58;;
30647;SDS011;17683;53.360;9.736;2023-03-21T05:08:09;42.60;;;33.38;;
30647;SDS011;17683;53.360;9.736;2023-03-21T05:10:36;37.45;;;30.83;;
30647;SDS011;17683;53.360;9.736;2023-03-21T05:13:02;41.47;;;33.00;;
30647;SDS011;17683;53.360;9.736;2023-03-21T05:15:28;40.70;;;31.45;;
30647;SDS011;17683;53.360;9.736;2023-03-21T05:17:53;43.03;;;33.25;;
30647;SDS011;17683;53.360;9.736;2023-03-21T05:20:22;44.60;;;33.17;;
30647;SDS011;17683;53.360;9.736;2023-03-21T05:22:48;40.13;;;29.98;;
30647;SDS011;17683;53.360;9.736;2023-03-21T05:25:16;41.17;;;31.17;;
30647;SDS011;17683;53.360;9.736;2023-03-21T05:27:45;38.15;;;30.23;;
30647;SDS011;17683;53.360;9.736;2023-03-21T05:30:18;36.20;;;28.65;;
30647;SDS011;17683;53.360;9.736;2023-03-21T05:32:44;40.95;;;31.33;;
30647;SDS011;17683;53.360;9.736;2023-03-21T05:35:11;45.42;;;33.03;;
30647;SDS011;17683;53.360;9.736;2023-03-21T05:37:37;45.58;;;31.52;;
30647;SDS011;17683;53.360;9.736;2023-03-21T05:40:03;48.97;;;32.72;;
30647;SDS011;17683;53.360;9.736;2023-03-21T05:42:31;43.13;;;31.83;;
30647;SDS011;17683;53.360;9.736;2023-03-21T05:44:57;42.15;;;30.50;;
30647;SDS011;17683;53.360;9.736;2023-03-21T05:47:23;48.28;;;34.83;;
30647;SDS011;17683;53.360;9.736;2023-03-21T05:49:48;45.58;;;32.60;;
30647;SDS011;17683;53.360;9.736;2023-03-21T05:52:15;43.50;;;32.03;;
30647;SDS011;17683;53.360;9.736;2023-03-21T05:54:40;47.72;;;33.83;;
30647;SDS011;17683;53.360;9.736;2023-03-21T05:57:06;45.00;;;32.83;;
30647;SDS011;17683;53.360;9.736;2023-03-21T05:59:33;45.95;;;35.63;;
30647;SDS011;17683;53.360;9.736;2023-03-21T06:01:59;47.63;;;33.95;;
30647;SDS011;17683;53.360;9.736;2023-03-21T06:04:25;54.75;;;36.88;;
30647;SDS011;17683;53.360;9.736;2023-03-21T06:06:51;49.85;;;35.00;;
30647;SDS011;17683;53.360;9.736;2023-03-21T06:09:18;52.35;;;35.53;;
30647;SDS011;17683;53.360;9.736;2023-03-21T06:11:49;47.38;;;35.10;;
30647;SDS011;17683;53.360;9.736;2023-03-21T06:14:17;51.63;;;36.53;;
30647;SDS011;17683;53.360;9.736;2023-03-21T06:16:43;52.97;;;35.05;;
30647;SDS011;17683;53.360;9.736;2023-03-21T06:19:09;50.60;;;35.20;;
30647;SDS011;17683;53.360;9.736;2023-03-21T06:21:35;51.55;;;35.97;;
30647;SDS011;17683;53.360;9.736;2023-03-21T06:24:01;53.22;;;35.10;;
30647;SDS011;17683;53.360;9.736;2023-03-21T06:26:27;53.15;;;35.00;;
30647;SDS011;17683;53.360;9.736;2023-03-21T06:28:53;54.83;;;35.53;;
30647;SDS011;17683;53.360;9.736;2023-03-21T06:31:19;47.35;;;34.85;;
30647;SDS011;17683;53.360;9.736;2023-03-21T06:33:46;52.97;;;35.75;;
30647;SDS011;17683;53.360;9.736;2023-03-21T06:36:13;54.47;;;35.42;;
30647;SDS011;17683;53.360;9.736;2023-03-21T06:38:39;52.22;;;34.40;;
30647;SDS011;17683;53.360;9.736;2023-03-21T06:41:06;54.35;;;36.00;;
30647;SDS011;17683;53.360;9.736;2023-03-21T06:43:32;47.03;;;33.60;;
30647;SDS011;17683;53.360;9.736;2023-03-21T06:45:58;55.78;;;34.90;;
30647;SDS011;17683;53.360;9.736;2023-03-21T06:48:24;50.10;;;34.95;;
30647;SDS011;17683;53.360;9.736;2023-03-21T06:50:51;49.08;;;34.55;;
30647;SDS011;17683;53.360;9.736;2023-03-21T06:53:18;51.30;;;35.13;;
30647;SDS011;17683;53.360;9.736;2023-03-21T06:55:49;57.58;;;36.35;;
30647;SDS011;17683;53.360;9.736;2023-03-21T06:58:15;53.88;;;35.13;;
30647;SDS011;17683;53.360;9.736;2023-03-21T07:00:41;56.35;;;36.25;;
30647;SDS011;17683;53.360;9.736;2023-03-21T07:03:08;55.83;;;38.22;;
30647;SDS011;17683;53.360;9.736;2023-03-21T07:05:35;47.50;;;34.42;;
30647;SDS011;17683;53.360;9.736;2023-03-21T07:08:01;51.08;;;34.72;;
30647;SDS011;17683;53.360;9.736;2023-03-21T07:10:27;54.00;;;34.33;;
30647;SDS011;17683;53.360;9.736;2023-03-21T07:12:52;61.83;;;36.67;;
30647;SDS011;17683;53.360;9.736;2023-03-21T07:15:18;59.20;;;37.03;;
30647;SDS011;17683;53.360;9.736;2023-03-21T07:17:44;53.47;;;34.10;;
30647;SDS011;17683;53.360;9.736;2023-03-21T07:20:10;57.65;;;37.38;;
30647;SDS011;17683;53.360;9.736;2023-03-21T07:22:37;53.35;;;36.17;;
30647;SDS011;17683;53.360;9.736;2023-03-21T07:25:03;57.80;;;37.13;;
30647;SDS011;17683;53.360;9.736;2023-03-21T07:27:29;55.22;;;35.25;;
30647;SDS011;17683;53.360;9.736;2023-03-21T07:29:55;59.72;;;37.17;;
30647;SDS011;17683;53.360;9.736;2023-03-21T07:32:20;60.33;;;34.42;;
30647;SDS011;17683;53.360;9.736;2023-03-21T07:34:46;60.08;;;37.13;;
30647;SDS011;17683;53.360;9.736;2023-03-21T07:37:12;54.83;;;36.25;;
30647;SDS011;17683;53.360;9.736;2023-03-21T07:39:38;55.25;;;35.53;;
30647;SDS011;17683;53.360;9.736;2023-03-21T07:42:04;52.65;;;34.30;;
30647;SDS011;17683;53.360;9.736;2023-03-21T07:44:29;48.80;;;34.17;;
30647;SDS011;17683;53.360;9.736;2023-03-21T07:46:57;52.40;;;33.75;;
30647;SDS011;17683;53.360;9.736;2023-03-21T07:49:23;50.65;;;31.65;;
30647;SDS011;17683;53.360;9.736;2023-03-21T07:51:50;47.72;;;31.13;;
30647;SDS011;17683;53.360;9.736;2023-03-21T07:54:16;49.40;;;31.40;;
30647;SDS011;17683;53.360;9.736;2023-03-21T07:56:46;46.70;;;30.88;;
30647;SDS011;17683;53.360;9.736;2023-03-21T07:59:11;44.03;;;30.52;;
30647;SDS011;17683;53.360;9.736;2023-03-21T08:01:37;44.05;;;30.23;;
30647;SDS011;17683;53.360;9.736;2023-03-21T08:04:03;42.20;;;29.25;;
30647;SDS011;17683;53.360;9.736;2023-03-21T08:06:28;40.00;;;28.80;;
30647;SDS011;17683;53.360;9.736;2023-03-21T08:08:56;40.90;;;30.13;;
30647;SDS011;17683;53.360;9.736;2023-03-21T08:11:23;46.08;;;31.02;;
30647;SDS011;17683;53.360;9.736;2023-03-21T08:13:49;48.55;;;32.35;;
30647;SDS011;17683;53.360;9.736;2023-03-21T08:16:15;50.95;;;33.78;;
30647;SDS011;17683;53.360;9.736;2023-03-21T08:18:42;42.72;;;31.15;;
30647;SDS011;17683;53.360;9.736;2023-03-21T08:21:08;48.30;;;29.85;;
30647;SDS011;17683;53.360;9.736;2023-03-21T08:23:34;43.67;;;32.13;;
30647;SDS011;17683;53.360;9.736;2023-03-21T08:26:00;53.72;;;32.78;;
30647;SDS011;17683;53.360;9.736;2023-03-21T08:28:26;54.20;;;34.00;;
30647;SDS011;17683;53.360;9.736;2023-03-21T08:30:52;56.78;;;35.03;;
30647;SDS011;17683;53.360;9.736;2023-03-21T08:33:18;52.33;;;34.85;;
30647;SDS011;17683;53.360;9.736;2023-03-21T08:35:44;59.00;;;36.78;;
30647;SDS011;17683;53.360;9.736;2023-03-21T08:38:10;67.30;;;37.90;;
30647;SDS011;17683;53.360;9.736;2023-03-21T08:40:36;59.95;;;38.05;;
30647;SDS011;17683;53.360;9.736;2023-03-21T08:43:02;63.03;;;38.20;;
30647;SDS011;17683;53.360;9.736;2023-03-21T08:45:28;64.05;;;38.00;;
30647;SDS011;17683;53.360;9.736;2023-03-21T08:47:53;61.05;;;38.80;;
30647;SDS011;17683;53.360;9.736;2023-03-21T08:50:21;63.13;;;38.55;;
30647;SDS011;17683;53.360;9.736;2023-03-21T08:52:49;61.88;;;38.80;;
30647;SDS011;17683;53.360;9.736;2023-03-21T08:55:16;62.33;;;40.22;;
30647;SDS011;17683;53.360;9.736;2023-03-21T08:57:43;64.95;;;38.65;;
30647;SDS011;17683;53.360;9.736;2023-03-21T09:00:10;66.30;;;39.35;;
30647;SDS011;17683;53.360;9.736;2023-03-21T09:02:41;57.97;;;37.15;;
30647;SDS011;17683;53.360;9.736;2023-03-21T09:05:09;58.08;;;37.97;;
30647;SDS011;17683;53.360;9.736;2023-03-21T09:07:39;56.92;;;36.38;;
30647;SDS011;17683;53.360;9.736;2023-03-21T09:10:06;61.80;;;38.88;;
30647;SDS011;17683;53.360;9.736;2023-03-21T09:12:34;57.88;;;37.17;;
30647;SDS011;17683;53.360;9.736;2023-03-21T09:15:00;56.75;;;36.75;;
30647;SDS011;17683;53.360;9.736;2023-03-21T09:17:27;58.88;;;37.35;;
30647;SDS011;17683;53.360;9.736;2023-03-21T09:19:53;62.10;;;36.88;;
30647;SDS011;17683;53.360;9.736;2023-03-21T09:22:21;58.13;;;36.10;;
30647;SDS011;17683;53.360;9.736;2023-03-21T09:24:47;58.35;;;36.78;;
30647;SDS011;17683;53.360;9.736;2023-03-21T09:27:14;56.70;;;34.22;;
30647;SDS011;17683;53.360;9.736;2023-03-21T09:29:42;55.13;;;34.47;;
30647;SDS011;17683;53.360;9.736;2023-03-21T09:32:11;54.13;;;36.08;;
30647;SDS011;17683;53.360;9.736;2023-03-21T09:34:38;49.28;;;34.00;;
30647;SDS011;17683;53.360;9.736;2023-03-21T09:37:08;51.83;;;33.75;;
30647;SDS011;17683;53.360;9.736;2023-03-21T09:39:41;48.38;;;32.67;;
30647;SDS011;17683;53.360;9.736;2023-03-21T09:42:12;46.97;;;31.92;;
30647;SDS011;17683;53.360;9.736;2023-03-21T09:44:58;46.75;;;31.23;;
30647;SDS011;17683;53.360;9.736;2023-03-21T09:47:27;44.38;;;30.52;;
30647;SDS011;17683;53.360;9.736;2023-03-21T09:55:24;47.13;;;32.35;;
30647;SDS011;17683;53.360;9.736;2023-03-21T09:58:12;47.47;;;33.05;;
30647;SDS011;17683;53.360;9.736;2023-03-21T10:01:19;49.72;;;34.10;;
30647;SDS011;17683;53.360;9.736;2023-03-21T10:03:54;57.17;;;35.17;;
30647;SDS011;17683;53.360;9.736;2023-03-21T10:06:21;54.88;;;35.47;;
30647;SDS011;17683;53.360;9.736;2023-03-21T10:08:52;54.55;;;36.38;;
30647;SDS011;17683;53.360;9.736;2023-03-21T10:11:46;53.08;;;33.35;;
30647;SDS011;17683;53.360;9.736;2023-03-21T10:14:50;48.05;;;32.50;;
30647;SDS011;17683;53.360;9.736;2023-03-21T10:20:10;56.03;;;35.50;;
30647;SDS011;17683;53.360;9.736;2023-03-21T10:22:43;51.58;;;33.10;;
30647;SDS011;17683;53.360;9.736;2023-03-21T10:25:13;50.28;;;35.28;;
30647;SDS011;17683;53.360;9.736;2023-03-21T10:27:42;49.83;;;34.30;;
30647;SDS011;17683;53.360;9.736;2023-03-21T10:30:12;50.97;;;34.58;;
30647;SDS011;17683;53.360;9.736;2023-03-21T10:32:51;55.47;;;34.50;;
30647;SDS011;17683;53.360;9.736;2023-03-21T10:35:18;55.03;;;36.50;;
30647;SDS011;17683;53.360;9.736;2023-03-21T10:37:44;50.45;;;33.63;;
30647;SDS011;17683;53.360;9.736;2023-03-21T10:40:14;54.60;;;35.25;;
30647;SDS011;17683;53.360;9.736;2023-03-21T10:42:41;58.20;;;34.33;;
30647;SDS011;17683;53.360;9.736;2023-03-21T10:45:17;53.33;;;34.95;;
30647;SDS011;17683;53.360;9.736;2023-03-21T10:47:46;52.72;;;33.00;;
30647;SDS011;17683;53.360;9.736;2023-03-21T10:50:13;50.05;;;33.10;;
30647;SDS011;17683;53.360;9.736;2023-03-21T10:52:42;54.88;;;32.08;;
30647;SDS011;17683;53.360;9.736;2023-03-21T10:55:16;52.17;;;34.42;;
30647;SDS011;17683;53.360;9.736;2023-03-21T10:57:54;53.05;;;32.53;;
30647;SDS011;17683;53.360;9.736;2023-03-21T11:00:44;50.85;;;32.80;;
30647;SDS011;17683;53.360;9.736;2023-03-21T11:06:11;47.50;;;31.33;;
30647;SDS011;17683;53.360;9.736;2023-03-21T11:08:48;53.00;;;31.65;;
30647;SDS011;17683;53.360;9.736;2023-03-21T11:11:19;44.90;;;29.13;;
30647;SDS011;17683;53.360;9.736;2023-03-21T11:13:59;49.65;;;30.40;;
30647;SDS011;17683;53.360;9.736;2023-03-21T11:16:41;50.55;;;32.03;;
30647;SDS011;17683;53.360;9.736;2023-03-21T11:19:50;46.28;;;29.92;;
30647;SDS011;17683;53.360;9.736;2023-03-21T11:22:03;41.20;;;27.30;;
30647;SDS011;17683;53.360;9.736;2023-03-21T11:24:31;44.03;;;28.05;;
30647;SDS011;17683;53.360;9.736;2023-03-21T11:26:57;44.47;;;28.83;;
30647;SDS011;17683;53.360;9.736;2023-03-21T11:32:00;39.60;;;25.02;;
30647;SDS011;17683;53.360;9.736;2023-03-21T11:34:39;33.33;;;23.27;;
30647;SDS011;17683;53.360;9.736;2023-03-21T11:37:15;32.42;;;22.85;;
30647;SDS011;17683;53.360;9.736;2023-03-21T11:39:44;33.42;;;23.90;;
30647;SDS011;17683;53.360;9.736;2023-03-21T11:42:29;37.63;;;23.50;;
30647;SDS011;17683;53.360;9.736;2023-03-21T11:45:01;30.38;;;23.13;;
30647;SDS011;17683;53.360;9.736;2023-03-21T11:47:34;30.38;;;22.27;;
30647;SDS011;17683;53.360;9.736;2023-03-21T11:50:00;27.38;;;20.90;;
30647;SDS011;17683;53.360;9.736;2023-03-21T11:52:35;27.95;;;20.77;;
30647;SDS011;17683;53.360;9.736;2023-03-21T12:03:20;26.42;;;19.17;;
30647;SDS011;17683;53.360;9.736;2023-03-21T12:05:55;27.83;;;19.65;;
30647;SDS011;17683;53.360;9.736;2023-03-21T12:17:18;23.58;;;17.42;;
30647;SDS011;17683;53.360;9.736;2023-03-21T12:19:56;22.98;;;17.27;;
30647;SDS011;17683;53.360;9.736;2023-03-21T12:22:36;22.88;;;17.50;;
30647;SDS011;17683;53.360;9.736;2023-03-21T12:25:17;24.95;;;18.30;;
30647;SDS011;17683;53.360;9.736;2023-03-21T12:33:12;26.42;;;17.83;;
30647;SDS011;17683;53.360;9.736;2023-03-21T12:49:23;25.60;;;18.48;;
30647;SDS011;17683;53.360;9.736;2023-03-21T12:52:15;25.15;;;18.58;;
30647;SDS011;17683;53.360;9.736;2023-03-21T12:54:49;24.30;;;19.17;;
30647;SDS011;17683;53.360;9.736;2023-03-21T12:57:31;28.20;;;19.77;;
30647;SDS011;17683;53.360;9.736;2023-03-21T13:03:09;26.73;;;18.25;;
30647;SDS011;17683;53.360;9.736;2023-03-21T13:05:38;21.45;;;16.77;;
30647;SDS011;17683;53.360;9.736;2023-03-21T13:10:42;22.60;;;17.70;;
30647;SDS011;17683;53.360;9.736;2023-03-21T13:13:11;19.95;;;16.98;;
30647;SDS011;17683;53.360;9.736;2023-03-21T13:21:35;25.35;;;17.40;;
30647;SDS011;17683;53.360;9.736;2023-03-21T13:26:56;21.23;;;17.00;;
30647;SDS011;17683;53.360;9.736;2023-03-21T13:29:32;23.85;;;16.30;;
30647;SDS011;17683;53.360;9.736;2023-03-21T13:32:14;20.25;;;16.27;;
30647;SDS011;17683;53.360;9.736;2023-03-21T13:34:41;21.85;;;16.55;;
30647;SDS011;17683;53.360;9.736;2023-03-21T13:37:13;20.02;;;15.32;;
30647;SDS011;17683;53.360;9.736;2023-03-21T13:39:44;22.88;;;15.30;;
30647;SDS011;17683;53.360;9.736;2023-03-21T13:42:21;20.33;;;15.55;;
30647;SDS011;17683;53.360;9.736;2023-03-21T13:44:54;18.85;;;15.50;;
30647;SDS011;17683;53.360;9.736;2023-03-21T13:47:49;21.23;;;15.23;;
30647;SDS011;17683;53.360;9.736;2023-03-21T13:55:41;19.50;;;16.33;;
30647;SDS011;17683;53.360;9.736;2023-03-21T13:58:22;19.45;;;15.73;;
30647;SDS011;17683;53.360;9.736;2023-03-21T14:03:55;24.30;;;16.00;;
30647;SDS011;17683;53.360;9.736;2023-03-21T14:07:18;24.67;;;17.23;;
30647;SDS011;17683;53.360;9.736;2023-03-21T14:12:03;18.80;;;14.73;;
30647;SDS011;17683;53.360;9.736;2023-03-21T14:14:43;20.15;;;15.05;;
30647;SDS011;17683;53.360;9.736;2023-03-21T14:17:12;18.52;;;15.07;;
30647;SDS011;17683;53.360;9.736;2023-03-21T14:19:53;18.75;;;16.15;;
30647;SDS011;17683;53.360;9.736;2023-03-21T14:22:20;18.08;;;14.70;;
30647;SDS011;17683;53.360;9.736;2023-03-21T14:24:47;17.90;;;16.00;;
30647;SDS011;17683;53.360;9.736;2023-03-21T14:27:19;18.85;;;14.15;;
30647;SDS011;17683;53.360;9.736;2023-03-21T14:29:45;18.20;;;13.95;;
30647;SDS011;17683;53.360;9.736;2023-03-21T14:32:21;17.90;;;14.50;;
30647;SDS011;17683;53.360;9.736;2023-03-21T14:34:48;18.17;;;14.50;;
30647;SDS011;17683;53.360;9.736;2023-03-21T14:40:03;19.00;;;15.07;;
30647;SDS011;17683;53.360;9.736;2023-03-21T14:42:35;18.40;;;14.98;;
30647;SDS011;17683;53.360;9.736;2023-03-21T14:45:19;18.38;;;14.63;;
30647;SDS011;17683;53.360;9.736;2023-03-21T14:48:00;22.90;;;16.10;;
30647;SDS011;17683;53.360;9.736;2023-03-21T14:53:17;19.80;;;15.68;;
30647;SDS011;17683;53.360;9.736;2023-03-21T14:55:50;19.45;;;14.43;;
30647;SDS011;17683;53.360;9.736;2023-03-21T14:58:39;18.65;;;13.93;;
30647;SDS011;17683;53.360;9.736;2023-03-21T15:01:11;18.33;;;14.55;;
30647;SDS011;17683;53.360;9.736;2023-03-21T15:03:42;16.77;;;13.75;;
30647;SDS011;17683;53.360;9.736;2023-03-21T15:06:10;19.17;;;14.20;;
30647;SDS011;17683;53.360;9.736;2023-03-21T15:08:38;15.15;;;13.23;;
30647;SDS011;17683;53.360;9.736;2023-03-21T15:11:05;16.05;;;12.73;;
30647;SDS011;17683;53.360;9.736;2023-03-21T15:13:39;15.43;;;11.20;;
30647;SDS011;17683;53.360;9.736;2023-03-21T15:16:14;13.70;;;11.70;;
30647;SDS011;17683;53.360;9.736;2023-03-21T15:18:40;16.73;;;11.95;;
30647;SDS011;17683;53.360;9.736;2023-03-21T15:21:11;14.18;;;11.95;;
30647;SDS011;17683;53.360;9.736;2023-03-21T15:23:47;20.88;;;11.13;;
30647;SDS011;17683;53.360;9.736;2023-03-21T15:26:18;13.70;;;11.95;;
30647;SDS011;17683;53.360;9.736;2023-03-21T15:28:46;14.35;;;11.60;;
30647;SDS011;17683;53.360;9.736;2023-03-21T15:31:16;14.55;;;10.50;;
30647;SDS011;17683;53.360;9.736;2023-03-21T15:33:46;13.65;;;11.15;;
30647;SDS011;17683;53.360;9.736;2023-03-21T15:36:17;13.35;;;9.43;;
30647;SDS011;17683;53.360;9.736;2023-03-21T15:38:49;13.35;;;10.93;;
30647;SDS011;17683;53.360;9.736;2023-03-21T15:46:42;11.70;;;9.40;;
30647;SDS011;17683;53.360;9.736;2023-03-21T15:52:12;11.15;;;9.25;;
30647;SDS011;17683;53.360;9.736;2023-03-21T15:54:49;11.45;;;9.55;;
30647;SDS011;17683;53.360;9.736;2023-03-21T15:57:23;13.25;;;9.10;;
30647;SDS011;17683;53.360;9.736;2023-03-21T15:59:59;14.43;;;9.07;;
30647;SDS011;17683;53.360;9.736;2023-03-21T16:02:36;11.43;;;9.05;;
30647;SDS011;17683;53.360;9.736;2023-03-21T16:05:23;13.82;;;9.63;;
30647;SDS011;17683;53.360;9.736;2023-03-21T16:08:19;12.55;;;10.10;;
30647;SDS011;17683;53.360;9.736;2023-03-21T16:10:46;11.30;;;9.45;;
30647;SDS011;17683;53.360;9.736;2023-03-21T16:13:13;13.43;;;10.52;;
30647;SDS011;17683;53.360;9.736;2023-03-21T16:15:39;12.57;;;10.85;;
30647;SDS011;17683;53.360;9.736;2023-03-21T16:18:05;12.32;;;10.63;;
30647;SDS011;17683;53.360;9.736;2023-03-21T16:20:35;12.68;;;10.15;;
30647;SDS011;17683;53.360;9.736;2023-03-21T16:23:08;14.25;;;9.82;;
30647;SDS011;17683;53.360;9.736;2023-03-21T16:25:37;13.45;;;10.02;;
30647;SDS011;17683;53.360;9.736;2023-03-21T16:28:05;13.73;;;10.27;;
30647;SDS011;17683;53.360;9.736;2023-03-21T16:30:37;13.38;;;11.82;;
30647;SDS011;17683;53.360;9.736;2023-03-21T16:33:03;13.07;;;10.50;;
30647;SDS011;17683;53.360;9.736;2023-03-21T16:35:29;14.88;;;10.75;;
30647;SDS011;17683;53.360;9.736;2023-03-21T16:37:55;16.30;;;10.32;;
30647;SDS011;17683;53.360;9.736;2023-03-21T16:40:26;14.68;;;10.85;;